createdAt,value
2023-01-01T00:02:08.636Z,7.00
2023-01-01T00:07:13.229Z,9.75
2023-01-01T00:12:17.807Z,12.00
2023-01-01T00:17:22.436Z,19.25
2023-01-01T00:22:53.211Z,20.25
2023-01-01T00:27:52.266Z,25.50
2023-01-01T00:32:57.203Z,25.50
2023-01-01T00:38:01.702Z,21.75
2023-01-01T00:43:06.377Z,34.50
2023-01-01T00:48:10.936Z,27.25
2023-01-01T00:53:15.504Z,20.50
2023-01-01T00:58:20.643Z,22.75
2023-01-01T01:03:31.765Z,23.00
2023-01-01T01:08:36.340Z,19.50
2023-01-01T01:13:41.028Z,18.00
2023-01-01T01:18:46.078Z,24.00
2023-01-01T01:23:51.820Z,19.25
2023-01-01T01:28:56.321Z,18.25
2023-01-01T01:34:00.813Z,19.25
2023-01-01T01:39:05.678Z,18.50
2023-01-01T01:44:29.574Z,19.00
2023-01-01T01:49:34.715Z,17.50
2023-01-01T01:54:39.713Z,16.25
2023-01-01T01:59:47.018Z,16.50
2023-01-01T02:04:51.714Z,14.50
2023-01-01T02:09:56.288Z,15.00
2023-01-01T02:15:00.544Z,14.75
2023-01-01T02:20:21.060Z,11.25
2023-01-01T02:25:25.499Z,11.50
2023-01-01T02:30:31.531Z,12.25
2023-01-01T02:35:40.144Z,9.50
2023-01-01T02:40:47.336Z,10.00
2023-01-01T02:45:52.186Z,12.00
2023-01-01T02:50:59.166Z,12.25
2023-01-01T02:56:21.589Z,10.25
2023-01-01T03:01:42.390Z,11.25
2023-01-01T03:07:09.126Z,11.00
2023-01-01T03:12:42.213Z,10.25
2023-01-01T03:17:51.227Z,10.75
2023-01-01T03:22:56.431Z,10.75
2023-01-01T03:28:02.844Z,7.50
2023-01-01T03:33:11.385Z,9.75
2023-01-01T03:38:21.734Z,11.75
2023-01-01T03:43:33.984Z,8.75
2023-01-01T03:49:03.007Z,9.00
2023-01-01T03:54:14.476Z,8.25
2023-01-01T03:59:22.876Z,8.25
2023-01-01T04:04:28.267Z,10.50
2023-01-01T04:09:33.425Z,7.00
2023-01-01T04:14:37.555Z,8.00
2023-01-01T04:19:42.207Z,7.00
2023-01-01T04:24:46.310Z,7.75
2023-01-01T04:29:50.956Z,5.25
2023-01-01T04:34:55.617Z,20.00
2023-01-01T04:39:59.711Z,17.50
2023-01-01T04:45:04.085Z,19.00
2023-01-01T04:50:08.378Z,17.50
2023-01-01T04:55:12.671Z,14.50
2023-01-01T05:00:16.961Z,16.50
2023-01-01T05:05:21.210Z,11.25
2023-01-01T05:10:25.646Z,15.25
2023-01-01T05:15:29.891Z,11.00
2023-01-01T05:20:34.179Z,13.25
2023-01-01T05:25:38.460Z,8.50
2023-01-01T05:30:42.830Z,9.50
2023-01-01T05:35:48.238Z,8.25
2023-01-01T05:40:53.160Z,9.00
2023-01-01T05:46:07.823Z,9.00
2023-01-01T05:51:14.533Z,7.50
2023-01-01T05:56:18.976Z,10.25
2023-01-01T06:01:24.007Z,11.25
2023-01-01T06:06:32.124Z,6.00
2023-01-01T06:11:37.434Z,10.75
2023-01-01T06:16:41.940Z,7.00
2023-01-01T06:21:46.474Z,12.50
2023-01-01T06:26:50.707Z,8.75
2023-01-01T06:31:56.600Z,8.75
2023-01-01T06:37:06.751Z,7.25
2023-01-01T06:42:11.635Z,7.75
2023-01-01T06:47:17.017Z,8.00
2023-01-01T06:52:21.198Z,7.25
2023-01-01T06:57:26.338Z,6.00
2023-01-01T07:02:30.868Z,6.75
2023-01-01T07:07:36.161Z,6.00
2023-01-01T07:12:41.033Z,6.75
2023-01-01T07:17:45.377Z,6.50
2023-01-01T07:22:49.676Z,8.25
2023-01-01T07:27:53.975Z,6.75
2023-01-01T07:32:58.370Z,6.50
2023-01-01T07:38:02.661Z,5.75
2023-01-01T07:43:07.058Z,4.00
2023-01-01T07:48:15.443Z,4.00
2023-01-01T07:53:19.875Z,8.75
2023-01-01T07:58:24.414Z,5.00
2023-01-01T08:03:28.804Z,7.50
2023-01-01T08:08:33.068Z,6.50
2023-01-01T08:13:37.590Z,5.25
2023-01-01T08:18:42.401Z,6.00
2023-01-01T08:23:46.868Z,6.50
2023-01-01T08:28:56.887Z,7.00
2023-01-01T08:34:01.463Z,3.00
2023-01-01T08:39:05.715Z,6.75
2023-01-01T08:44:10.009Z,5.00
2023-01-01T08:49:14.340Z,7.00
2023-01-01T08:54:18.630Z,11.75
2023-01-01T08:59:22.996Z,12.75
2023-01-01T09:04:27.721Z,13.25
2023-01-01T09:09:32.113Z,13.50
2023-01-01T09:14:36.804Z,16.00
2023-01-01T09:19:41.721Z,25.75
2023-01-01T09:24:46.363Z,29.75
2023-01-01T09:29:51.067Z,34.00
2023-01-01T09:34:55.809Z,42.25
2023-01-01T09:40:00.934Z,46.75
2023-01-01T09:45:12.015Z,50.00
2023-01-01T09:50:20.452Z,60.00
2023-01-01T09:55:36.835Z,57.50
2023-01-01T10:00:46.228Z,58.00
2023-01-01T10:05:50.934Z,61.25
2023-01-01T10:11:04.500Z,68.75
2023-01-01T10:16:12.320Z,65.25
2023-01-01T10:21:19.969Z,64.50
2023-01-01T10:26:26.593Z,59.75
2023-01-01T10:31:33.673Z,62.75
2023-01-01T10:36:38.437Z,58.75
2023-01-01T10:41:42.956Z,52.75
2023-01-01T10:46:50.565Z,51.00
2023-01-01T10:51:56.285Z,48.75
2023-01-01T10:57:01.565Z,51.00
2023-01-01T11:02:24.742Z,50.50
2023-01-01T11:07:36.502Z,50.75
2023-01-01T11:18:11.434Z,47.25
2023-01-01T11:23:21.422Z,46.00
2023-01-01T11:28:26.093Z,46.25
2023-01-01T11:33:34.580Z,42.50
2023-01-01T11:38:39.290Z,40.75
2023-01-01T11:43:47.613Z,40.00
2023-01-01T11:48:52.855Z,40.25
2023-01-01T11:54:10.975Z,37.50
2023-01-01T11:59:27.320Z,35.75
2023-01-01T12:04:51.093Z,35.50
2023-01-01T12:10:11.110Z,36.75
2023-01-01T12:15:36.959Z,35.25
2023-01-01T12:20:55.684Z,34.75
2023-01-01T12:26:12.335Z,35.25
2023-01-01T12:31:17.250Z,39.50
2023-01-01T12:36:40.043Z,34.25
2023-01-01T12:41:44.856Z,38.50
2023-01-01T12:46:52.310Z,37.25
2023-01-01T12:52:00.477Z,35.25
2023-01-01T12:57:31.999Z,35.75
2023-01-01T13:02:37.463Z,35.00
2023-01-01T13:07:45.696Z,32.75
2023-01-01T13:12:51.592Z,31.50
2023-01-01T13:17:56.169Z,31.50
2023-01-01T13:23:01.346Z,31.00
2023-01-01T13:28:06.949Z,30.00
2023-01-01T13:33:32.000Z,31.25
2023-01-01T13:38:54.644Z,28.00
2023-01-01T13:44:04.887Z,27.50
2023-01-01T13:49:27.641Z,24.00
2023-01-01T13:54:50.664Z,24.75
2023-01-01T13:59:58.197Z,28.75
2023-01-01T14:05:08.545Z,22.00
2023-01-01T14:10:41.475Z,24.50
2023-01-01T14:16:05.698Z,24.75
2023-01-01T14:21:14.381Z,22.50
2023-01-01T14:26:25.239Z,22.50
2023-01-01T14:31:31.100Z,23.50
2023-01-01T14:36:37.232Z,22.25
2023-01-01T14:41:46.562Z,26.00
2023-01-01T14:46:53.817Z,26.75
2023-01-01T14:52:24.109Z,28.50
2023-01-01T14:57:33.787Z,31.25
2023-01-01T15:02:40.948Z,32.75
2023-01-01T15:07:46.105Z,34.75
2023-01-01T15:12:50.655Z,33.50
2023-01-01T15:17:56.082Z,35.00
2023-01-01T15:23:07.970Z,35.75
2023-01-01T15:28:22.510Z,35.50
2023-01-01T15:33:36.080Z,34.50
2023-01-01T15:38:45.232Z,39.00
2023-01-01T15:43:54.530Z,38.25
2023-01-01T15:49:01.793Z,39.75
2023-01-01T15:54:09.244Z,38.25
2023-01-01T15:59:16.836Z,34.75
2023-01-01T16:04:30.587Z,36.75
2023-01-01T16:09:36.449Z,35.75
2023-01-01T16:14:42.557Z,36.25
2023-01-01T16:19:49.239Z,38.50
2023-01-01T16:24:55.396Z,39.25
2023-01-01T16:30:00.525Z,36.50
2023-01-01T16:35:11.804Z,34.75
2023-01-01T16:40:17.821Z,37.00
2023-01-01T16:45:23.642Z,34.50
2023-01-01T16:50:29.760Z,35.50
2023-01-01T16:55:34.823Z,34.25
2023-01-01T17:00:39.787Z,35.25
2023-01-01T17:05:44.944Z,36.50
2023-01-01T17:10:53.491Z,34.75
2023-01-01T17:16:02.653Z,36.75
2023-01-01T17:21:08.662Z,34.50
2023-01-01T17:26:21.574Z,36.50
2023-01-01T17:31:27.187Z,42.25
2023-01-01T17:36:32.488Z,35.50
2023-01-01T17:41:37.530Z,36.25
2023-01-01T17:46:42.228Z,37.00
2023-01-01T17:51:47.359Z,38.00
2023-01-01T17:56:52.209Z,34.50
2023-01-01T18:01:57.190Z,35.25
2023-01-01T18:07:06.310Z,35.50
2023-01-01T18:12:10.947Z,33.75
2023-01-01T18:17:15.549Z,38.75
2023-01-01T18:22:20.429Z,35.75
2023-01-01T18:27:25.124Z,33.50
2023-01-01T18:32:29.749Z,30.00
2023-01-01T18:37:35.228Z,31.50
2023-01-01T18:42:41.006Z,24.50
2023-01-01T18:47:47.659Z,29.25
2023-01-01T18:53:02.504Z,28.75
2023-01-01T18:58:15.956Z,28.50
2023-01-01T19:03:29.206Z,30.00
2023-01-01T19:08:33.455Z,23.00
2023-01-01T19:13:38.586Z,24.25
2023-01-01T19:18:47.038Z,27.75
2023-01-01T19:23:52.126Z,24.25
2023-01-01T19:28:58.571Z,25.75
2023-01-01T19:34:03.137Z,26.50
2023-01-01T19:39:08.288Z,19.75
2023-01-01T19:44:12.371Z,21.25
2023-01-01T19:49:16.911Z,19.25
2023-01-01T19:54:21.407Z,19.75
2023-01-01T19:59:33.002Z,18.00
2023-01-01T20:04:38.027Z,19.75
2023-01-01T20:09:42.804Z,16.50
2023-01-01T20:14:47.080Z,16.75
2023-01-01T20:19:51.538Z,13.00
2023-01-01T20:24:56.176Z,15.00
2023-01-01T20:30:00.852Z,14.25
2023-01-01T20:35:05.608Z,15.00
2023-01-01T20:40:11.502Z,11.00
2023-01-01T20:45:16.003Z,12.75
2023-01-01T20:50:20.244Z,17.25
2023-01-01T20:55:24.773Z,12.00
2023-01-01T21:00:29.341Z,10.25
2023-01-01T21:05:33.900Z,11.25
2023-01-01T21:10:38.338Z,11.00
2023-01-01T21:15:42.519Z,8.75
2023-01-01T21:20:48.175Z,12.50
2023-01-01T21:25:53.210Z,9.25
2023-01-01T21:30:58.702Z,6.50
2023-01-01T21:36:22.961Z,7.00
2023-01-01T21:41:27.559Z,7.25
2023-01-01T21:46:35.004Z,8.75
2023-01-01T21:51:43.886Z,6.50
2023-01-01T21:56:54.030Z,7.25
2023-01-01T22:02:22.451Z,5.00
2023-01-01T22:07:57.079Z,5.50
2023-01-01T22:12:58.728Z,6.25
2023-01-01T22:18:15.628Z,7.75
2023-01-01T22:23:33.222Z,6.50
2023-01-01T22:28:43.814Z,6.25
2023-01-01T22:33:49.052Z,7.50
2023-01-01T22:38:59.234Z,8.75
2023-01-01T22:44:05.293Z,7.25
2023-01-01T22:49:32.411Z,7.50
2023-01-01T22:54:37.024Z,6.75
2023-01-01T22:59:42.753Z,7.00
2023-01-01T23:04:47.251Z,8.50
2023-01-01T23:09:51.829Z,6.00
2023-01-01T23:15:14.231Z,6.75
2023-01-01T23:20:18.592Z,7.00
2023-01-01T23:25:24.408Z,4.75
2023-01-01T23:30:28.969Z,7.25
2023-01-01T23:35:33.578Z,6.00
2023-01-01T23:40:38.125Z,6.75
2023-01-01T23:45:43.020Z,5.50
2023-01-01T23:50:48.919Z,7.75
2023-01-01T23:55:54.340Z,8.25
